Latest Weather Observations for Yarrawonga

IDN60801

Issued at 7:42 am EST Monday 20 August 2018 (issued every 10 minutes, with the page automatically refreshed every 10 minutes)

About weather observations | Map of weather stations | Latest weather observations for NSW | Other Formats
Station Details ID: 081124 Name: YARRAWONGA Lat: -36.03 Lon: 146.03 Height: 128.9 m
Data from the previous 72 hours. | See also: Recent months at Yarrawonga
Date/Time
EST
Temp
°C
App
Temp
°C
Dew
Point
°C
Rel
Hum
%
Delta-T
°C
Wind Press
QNH
hPa
Press
MSL
hPa
Rain since
9am
mm
Dir  Spd
km/h
Gust
km/h
Spd
kts
Gust
kts
20/07:30am 0.6 -3.8 0.5 99 0.0 WSW 13 15 7 8 1024.5 1024.7 0.0
20/07:00am -0.1 -3.5 -0.4 98 0.1 SW 7 11 4 6 1024.4 1024.6 0.0
20/06:30am -0.4 -3.8 -0.7 98 0.1 SW 7 11 4 6 1024.4 1024.6 0.0
20/06:00am 0.3 -2.8 -0.1 97 0.1 SW 6 9 3 5 1024.0 1024.2 0.0
20/05:30am 1.0 -2.0 0.6 97 0.1 SW 6 11 3 6 1023.9 1024.1 0.0
20/05:00am 0.8 -2.5 0.2 96 0.2 SW 7 11 4 6 1023.7 1023.9 0.0
20/04:30am 1.0 -3.4 0.4 96 0.2 WSW 13 15 7 8 1023.5 1023.7 0.0
20/04:00am 1.8 -3.2 1.1 95 0.3 WSW 17 20 9 11 1023.7 1023.9 0.0
20/03:30am 1.4 -2.9 0.7 95 0.3 WSW 13 17 7 9 1024.0 1024.2 0.0
20/03:00am 1.9 -2.8 1.0 94 0.3 WSW 15 19 8 10 1024.0 1024.2 0.0
20/02:30am 2.5 -2.9 1.3 92 0.5 WSW 19 20 10 11 1024.1 1024.3 0.0
20/02:00am 3.1 -2.4 1.8 91 0.5 WSW 20 24 11 13 1024.5 1024.7 0.0
20/01:30am 3.6 -1.9 1.6 87 0.8 WSW 20 26 11 14 1024.6 1024.8 0.0
20/01:00am 4.1 -1.7 2.3 88 0.7 SW 22 28 12 15 1024.4 1024.6 0.0
20/12:30am 4.0 -1.4 2.5 90 0.6 SW 20 26 11 14 1024.4 1024.6 0.0
20/12:00am 3.1 -1.1 1.6 90 0.6 WSW 13 15 7 8 1024.6 1024.8 0.0
 
Date/Time
EST
Temp
°C
App
Temp
°C
Dew
Point
°C
Rel
Hum
%
Delta-T
°C
Wind Press
QNH
hPa
Press
MSL
hPa
Rain since
9am
mm
Dir  Spd
km/h
Gust
km/h
Spd
kts
Gust
kts
19/11:30pm 4.3 -0.1 2.5 88 0.7 WSW 15 19 8 10 1024.5 1024.7 0.0
19/11:00pm 4.6 0.2 2.8 88 0.7 WSW 15 20 8 11 1024.7 1024.9 0.0
19/10:30pm 4.6 0.2 2.6 87 0.8 SW 15 20 8 11 1024.9 1025.1 0.0
19/10:00pm 4.8 -0.3 2.8 87 0.8 WSW 19 24 10 13 1024.8 1025.0 0.0
19/09:30pm 4.4 0.0 2.6 88 0.7 WSW 15 20 8 11 1024.8 1025.0 0.0
19/09:00pm 4.7 0.3 2.6 86 0.9 WSW 15 19 8 10 1024.7 1024.9 0.0
19/08:30pm 5.3 1.3 2.8 84 1.0 WSW 13 17 7 9 1024.7 1024.9 0.0
19/08:00pm 5.4 1.4 2.6 82 1.1 WSW 13 17 7 9 1024.7 1024.9 0.0
19/07:30pm 5.8 1.1 3.1 83 1.1 WSW 17 20 9 11 1024.1 1024.3 0.0
19/07:00pm 5.5 1.6 3.3 86 0.9 SW 13 17 7 9 1023.7 1023.9 0.0
19/06:30pm 6.8 3.2 3.2 78 1.5 SW 11 17 6 9 1023.3 1023.5 0.0
19/06:00pm 8.8 3.2 3.6 70 2.3 SSW 22 30 12 16 1022.6 1022.9 0.0
19/05:30pm 10.1 3.0 3.4 63 2.9 SSW 30 43 16 23 1021.9 1022.1 0.0
19/05:03pm 10.1 2.3 2.9 61 3.1 SW 33 52 18 28 1021.5 1021.7 0.0
19/05:00pm 10.1 2.5 2.9 61 3.1 SW 32 44 17 24 1021.4 1021.6 0.0
19/04:30pm 10.7 3.3 4.2 64 2.9 SW 32 46 17 25 1021.1 1021.3 0.0
19/04:01pm 11.2 4.0 4.9 65 2.9 SW 32 50 17 27 1020.7 1020.9 0.0
19/04:00pm 11.2 3.7 4.7 64 3.0 SW 33 50 18 27 1020.6 1020.8 0.0
19/03:42pm 10.7 2.4 4.2 64 2.9 SSW 37 57 20 31 1020.5 1020.7 0.0
19/03:30pm 11.3 2.6 4.3 62 3.2 SW 39 54 21 29 1020.3 1020.5 0.0
19/03:05pm 11.0 1.9 4.0 62 3.1 SW 41 59 22 32 1019.9 1020.1 0.0
19/03:00pm 11.1 2.1 4.8 65 2.9 SW 41 56 22 30 1019.9 1020.1 0.0
19/02:30pm 10.9 1.0 4.8 66 2.8 SW 46 65 25 35 1019.9 1020.1 0.0
19/02:00pm 10.4 1.4 4.3 66 2.7 SW 41 65 22 35 1019.5 1019.7 0.0
19/01:55pm 10.4 1.3 4.1 65 2.8 SW 41 65 22 35 1019.6 1019.8 0.0
19/01:30pm 11.0 1.6 4.2 63 3.1 SW 43 57 23 31 1019.5 1019.7 0.0
19/01:21pm 10.8 1.2 4.5 65 2.8 SW 44 63 24 34 1019.5 1019.7 0.0
19/01:00pm 11.0 0.7 4.5 64 2.9 SW 48 67 26 36 1019.2 1019.4 0.0
19/12:39pm 10.6 0.0 2.9 59 3.4 SW 48 70 26 38 1019.1 1019.3 0.0
19/12:30pm 11.5 1.3 3.3 57 3.6 SW 46 61 25 33 1019.2 1019.4 0.0
19/12:05pm 11.0 1.3 3.1 58 3.5 SW 43 63 23 34 1019.4 1019.6 0.0
19/12:00pm 10.8 1.9 3.1 59 3.4 SW 39 56 21 30 1019.4 1019.6 0.0
19/11:30am 10.2 1.9 4.4 67 2.6 WSW 37 54 20 29 1019.4 1019.6 0.0
19/11:00am 9.7 1.9 4.7 71 2.2 WSW 35 54 19 29 1019.3 1019.5 0.0
19/10:30am 9.2 1.0 4.6 73 2.1 WSW 37 48 20 26 1018.9 1019.1 0.0
19/10:00am 8.7 0.0 4.3 74 1.9 WSW 39 50 21 27 1018.8 1019.0 0.0
19/09:30am 8.0 -0.3 4.2 77 1.7 WSW 37 48 20 26 1018.6 1018.8 0.0
19/09:00am 7.1 -0.2 4.6 84 1.1 WSW 32 43 17 23 1018.3 1018.5 0.0
19/08:30am 5.9 -1.0 4.4 90 0.6 W 30 37 16 20 1017.9 1018.1 0.0
19/08:00am 5.1 -1.5 4.1 93 0.4 W 28 35 15 19 1017.6 1017.8 0.0
19/07:30am 4.2 -2.1 3.5 95 0.3 W 26 35 14 19 1017.2 1017.4 0.0
19/07:00am 3.9 -2.1 3.2 95 0.3 W 24 30 13 16 1016.8 1017.0 0.0
19/06:30am 3.7 -1.6 3.1 96 0.2 W 20 28 11 15 1016.3 1016.5 0.0
19/06:00am 3.6 -1.1 3.0 96 0.2 W 17 24 9 13 1016.2 1016.4 0.0
19/05:30am 3.5 -1.2 2.9 96 0.2 W 17 22 9 12 1016.1 1016.3 0.0
19/05:00am 3.7 -1.6 3.1 96 0.2 W 20 26 11 14 1015.8 1016.0 0.0
19/04:30am 3.9 -1.3 3.3 96 0.2 W 20 30 11 16 1015.7 1015.8 0.0
19/04:00am 4.1 -1.5 3.4 95 0.3 W 22 30 12 16 1015.2 1015.3 0.0
19/03:30am 4.1 -1.1 3.4 95 0.3 W 20 30 11 16 1015.2 1015.3 0.0
19/03:00am 4.1 -0.9 3.4 95 0.3 W 19 26 10 14 1015.0 1015.1 0.0
19/02:30am 4.2 -0.5 3.3 94 0.4 W 17 24 9 13 1015.0 1015.1 0.0
19/02:00am 4.3 -0.3 3.6 95 0.3 W 17 22 9 12 1015.2 1015.3 0.0
19/01:30am 4.0 -0.3 3.3 95 0.3 W 15 20 8 11 1015.2 1015.3 0.0
19/01:00am 4.7 0.1 3.7 93 0.4 W 17 24 9 13 1015.1 1015.2 0.0
19/12:30am 4.6 -0.1 3.4 92 0.5 W 17 20 9 11 1015.0 1015.1 0.0
19/12:00am 4.9 0.7 3.7 92 0.5 W 15 19 8 10 1015.1 1015.2 0.0
 
Date/Time
EST
Temp
°C
App
Temp
°C
Dew
Point
°C
Rel
Hum
%
Delta-T
°C
Wind Press
QNH
hPa
Press
MSL
hPa
Rain since
9am
mm
Dir  Spd
km/h
Gust
km/h
Spd
kts
Gust
kts
18/11:30pm 5.2 0.6 3.9 91 0.6 W 17 20 9 11 1015.2 1015.3 0.0
18/11:00pm 5.7 1.6 4.3 91 0.6 W 15 24 8 13 1015.0 1015.1 0.0
18/10:30pm 5.7 2.0 4.2 90 0.6 W 13 19 7 10 1014.8 1015.0 0.0
18/10:00pm 6.4 1.9 4.4 87 0.9 W 17 22 9 12 1014.7 1014.9 0.0
18/09:30pm 6.8 2.8 4.8 87 0.9 W 15 22 8 12 1014.5 1014.7 0.0
18/09:00pm 6.7 2.3 4.5 86 1.0 W 17 24 9 13 1014.3 1014.5 0.0
18/08:30pm 6.8 2.8 4.8 87 0.9 WNW 15 20 8 11 1013.9 1014.1 0.0
18/08:00pm 6.7 2.6 4.4 85 1.0 WNW 15 22 8 12 1013.7 1013.9 0.0
18/07:30pm 6.6 2.8 3.8 82 1.2 WNW 13 19 7 10 1013.6 1013.8 0.0
18/07:00pm 6.8 2.1 3.4 79 1.4 W 17 24 9 13 1013.3 1013.5 0.0
18/06:30pm 6.9 2.1 4.7 86 1.0 W 19 33 10 18 1012.8 1013.0 0.0
18/06:00pm 8.4 0.8 3.8 73 2.0 WSW 33 46 18 25 1012.7 1012.9 0.0
18/05:59pm 8.8 1.2 3.8 71 2.2 W 33 46 18 25 1012.6 1012.8 0.0
18/05:30pm 10.0 3.7 3.5 64 2.9 WNW 26 35 14 19 1011.4 1011.6 0.0
18/05:00pm 10.2 4.7 5.8 74 2.0 W 24 39 13 21 1011.2 1011.4 0.0
18/04:30pm 10.9 7.8 7.2 78 1.8 W 13 20 7 11 1010.9 1011.1 0.0
18/04:00pm 10.4 6.2 7.3 81 1.5 W 19 24 10 13 1010.7 1010.9 0.0
18/03:30pm 8.8 1.9 7.1 89 0.8 WSW 33 46 18 25 1010.6 1010.8 0.0
18/03:00pm 12.3 5.3 6.1 66 2.9 W 32 43 17 23 1010.3 1010.5 0.0
18/02:30pm 10.0 3.2 6.7 80 1.6 WSW 32 44 17 24 1010.2 1010.4 0.0
18/02:06pm 12.8 7.0 6.4 65 3.1 W 26 46 14 25 1010.1 1010.3 0.0
18/02:00pm 11.9 7.0 7.0 72 2.4 WSW 22 30 12 16 1010.1 1010.3 0.0
18/01:30pm 13.6 8.0 7.2 65 3.1 WNW 26 37 14 20 1009.9 1010.1 0.0
18/01:29pm 13.4 7.5 7.4 67 3.0 W 28 46 15 25 1009.8 1010.0 0.0
18/01:00pm 11.7 4.8 6.4 70 2.5 W 32 46 17 25 1010.3 1010.5 0.0
18/12:30pm 13.2 7.1 6.5 64 3.2 W 28 37 15 20 1010.5 1010.7 0.0
18/12:00pm 12.0 7.3 7.7 75 2.1 WSW 22 33 12 18 1010.9 1011.1 0.0
18/11:30am 11.6 5.8 8.1 79 1.7 W 28 39 15 21 1010.9 1011.1 0.0
18/11:00am 10.9 5.1 8.0 82 1.4 W 28 35 15 19 1010.9 1011.1 0.0
18/10:30am 10.1 5.6 8.7 91 0.7 WNW 22 30 12 16 1010.7 1010.9 0.0
18/10:00am 9.0 4.9 8.6 97 0.2 WNW 20 32 11 17 1010.5 1010.7 0.0
18/09:30am 8.7 5.0 8.1 96 0.3 WNW 17 22 9 12 1010.7 1010.9 0.0
18/09:00am 8.2 5.6 7.6 96 0.3 NW 11 17 6 9 1010.6 1010.8 3.2
18/08:30am 7.7 5.3 7.1 96 0.3 NW 9 15 5 8 1010.4 1010.6 3.2
18/08:00am 7.2 4.7 6.6 96 0.3 WNW 9 15 5 8 1010.3 1010.5 3.2
18/07:30am 7.5 4.1 6.1 91 0.6 W 13 19 7 10 1010.4 1010.6 1.4
18/07:00am 9.3 5.6 4.5 72 2.1 WNW 13 22 7 12 1009.6 1009.8 0.0
18/06:30am 7.8 4.9 4.9 82 1.3 NNW 9 11 5 6 1009.3 1009.5 0.0
18/06:00am 7.0 4.5 5.0 87 0.9 N 7 11 4 6 1009.2 1009.3 0.0
18/05:30am 6.7 4.2 4.5 86 1.0 NNE 7 7 4 4 1009.1 1009.2 0.0
18/05:00am 6.7 4.6 3.9 82 1.2 N 4 6 2 3 1009.3 1009.5 0.0
18/04:30am 7.0 4.2 3.4 78 1.5 NW 7 17 4 9 1009.6 1009.8 0.0
18/04:00am 7.0 2.7 3.4 78 1.5 N 15 19 8 10 1009.1 1009.2 0.0
18/03:30am 6.6 2.7 3.4 80 1.4 N 13 17 7 9 1009.5 1009.7 0.0
18/03:00am 6.3 2.8 3.5 82 1.2 NNE 11 15 6 8 1010.2 1010.4 0.0
18/02:30am 5.7 2.2 3.7 87 0.8 NNE 11 15 6 8 1010.7 1010.9 0.0
18/02:00am 5.7 2.2 3.4 85 1.0 NNE 11 15 6 8 1011.3 1011.5 0.0
18/01:30am 4.3 0.7 2.7 89 0.7 NE 11 13 6 7 1011.5 1011.7 0.0
18/01:00am 3.4 0.7 2.4 93 0.4 NE 6 7 3 4 1011.8 1012.0 0.0
18/12:30am 4.0 0.0 3.0 93 0.4 NE 13 15 7 8 1012.0 1012.2 0.0
18/12:00am 3.1 0.1 1.9 92 0.5 NE 7 9 4 5 1012.6 1012.8 0.0
 
Date/Time
EST
Temp
°C
App
Temp
°C
Dew
Point
°C
Rel
Hum
%
Delta-T
°C
Wind Press
QNH
hPa
Press
MSL
hPa
Rain since
9am
mm
Dir  Spd
km/h
Gust
km/h
Spd
kts
Gust
kts
17/11:30pm 3.3 0.5 2.3 93 0.4 NE 6 6 3 3 1012.9 1013.1 0.0
17/11:00pm 4.5 1.9 3.0 90 0.6 N 6 6 3 3 1013.1 1013.3 0.0
17/10:30pm 5.8 3.4 4.1 89 0.7 NNE 6 7 3 4 1013.1 1013.3 0.0
17/10:00pm 6.4 4.5 4.7 89 0.7 NNE 4 6 2 3 1013.4 1013.6 0.0
17/09:30pm 6.5 4.2 4.7 88 0.8 NE 6 7 3 4 1013.2 1013.4 0.0
17/09:00pm 6.4 3.5 4.7 89 0.7 NE 9 11 5 6 1013.1 1013.3 0.0
17/08:30pm 6.4 3.5 4.9 90 0.7 NE 9 11 5 6 1013.1 1013.3 0.0
17/08:00pm 5.8 2.9 4.4 91 0.6 NE 9 11 5 6 1013.2 1013.4 0.0
17/07:30pm 5.9 2.8 3.6 85 1.0 ENE 9 11 5 6 1013.3 1013.5 0.0
17/07:00pm 7.3 4.7 4.3 81 1.3 E 7 7 4 4 1013.3 1013.5 0.0
17/06:30pm 8.4 7.3 5.0 79 1.5 CALM 0 0 0 0 1013.3 1013.5 0.0
17/06:00pm 11.2 10.1 5.3 67 2.7 CALM 0 0 0 0 1013.2 1013.4 0.0
17/05:30pm 13.1 11.6 5.0 58 3.8 WNW 2 6 1 3 1013.2 1013.4 0.0
17/05:00pm 14.5 13.1 5.3 54 4.4 W 2 6 1 3 1013.3 1013.5 0.0
17/04:30pm 13.7 10.1 4.8 55 4.1 W 13 17 7 9 1013.3 1013.5 0.0
17/04:00pm 14.5 11.6 4.8 52 4.6 W 9 13 5 7 1013.2 1013.4 0.0
17/03:30pm 14.3 11.1 5.1 54 4.3 W 11 17 6 9 1013.5 1013.7 0.0
17/03:00pm 14.9 12.0 4.6 50 4.8 WNW 9 13 5 7 1013.5 1013.7 0.0
17/02:30pm 14.7 12.0 5.8 55 4.3 NW 9 15 5 8 1013.6 1013.8 0.0
17/02:00pm 14.4 11.7 5.7 56 4.2 WSW 9 17 5 9 1013.8 1014.0 0.0
17/01:30pm 14.7 10.8 5.2 53 4.5 W 15 20 8 11 1014.0 1014.2 0.0
17/01:00pm 14.3 12.1 6.2 58 3.9 NW 7 13 4 7 1014.4 1014.6 0.0
17/12:30pm 13.2 9.8 6.1 62 3.4 W 13 19 7 10 1014.8 1015.0 0.0
17/12:00pm 12.5 9.8 5.7 63 3.2 W 9 15 5 8 1015.4 1015.5 0.0
17/11:30am 12.9 10.9 6.9 67 2.9 NNW 7 13 4 7 1015.7 1015.8 0.0
17/11:00am 13.0 11.3 7.5 69 2.7 NNW 6 9 3 5 1016.1 1016.3 0.0
17/10:30am 11.2 9.7 6.7 74 2.1 N 4 6 2 3 1016.4 1016.6 0.0
17/10:00am 11.0 9.8 6.4 73 2.2 N 2 4 1 2 1016.5 1016.7 0.0
17/09:30am 8.8 7.3 6.8 87 0.9 NNE 4 6 2 3 1016.4 1016.6 0.0
17/09:00am 7.4 6.3 7.0 97 0.2 ENE 2 6 1 3 1016.5 1016.7 0.0
17/08:30am 6.3 5.4 6.2 99 0.0 CALM 0 4 0 2 1016.4 1016.6 0.0
17/08:00am 5.8 4.8 5.7 99 0.0 CALM 0 2 0 1 1016.2 1016.4 0.0

Other Formats:

Comma delimited format used in spreadsheet applications
http://www.bom.gov.au/fwo/IDN60801/IDN60801.94862.axf

JavaScript Object Notation format (JSON) in row-major order
http://www.bom.gov.au/fwo/IDN60801/IDN60801.94862.json